Mustafa Sofuoglu — TCOJ7 — position and weather

sailwx.info

Track history (hours):
 
Tides and Currents Weather Stations Pressure Air Temp Water Temp Dewpoint Dewpoint Depression Visibility Wind Speed Wind Dir Waves Ship Positions

Mustafa Sofuoglu

Last reported at 2016-Jan-18 09:33 UTC. Time now 2016-Feb-09 05:40 UTC.
Position N 42°11' E 038°58'.
Warning: this ship's position is 21 days out of date.

Length 106 m; draft 5.4 m.

Type: Cargo ship. MMSI: 271000831.

Date/timePositionNaut miles runAvg speedWind from/ knotsBaromVisibWave heightAir tempDewpointWater temp
2016-Jan-18 09:33N 42°11' E 038°58'1411.8
2016-Jan-18 08:24N 42°11' E 038°40'1111.9
2016-Jan-18 07:27N 42°10' E 038°25'1111.9
2016-Jan-18 06:31N 42°10' E 038°10'1212.0
2016-Jan-18 05:33N 42°10' E 037°54'1212.0
2016-Jan-18 04:33N 42°10' E 037°38'39712.4
2016-Jan-16 20:31N 40°58' E 028°57'5 2.3
2016-Jan-16 18:31N 40°54' E 029°00'1212.3
2016-Jan-16 17:33N 40°47' E 029°13'1211.4
2016-Jan-16 16:29N 40°45' E 029°29'2 0.1
2016-Jan-15 12:33N 40°46' E 029°26'0 0.0
2016-Jan-15 11:19N 40°46' E 029°26'0 0.0
2016-Jan-15 10:07N 40°46' E 029°26'0 0.1
2016-Jan-15 09:31N 40°46' E 029°26'6 1.2
2016-Jan-15 04:33N 40°45' E 029°18'1212.1
2016-Jan-15 03:33N 40°49' E 029°03'1110.4
2016-Jan-15 02:32N 40°59' E 028°57'177 5.7
2016-Jan-13 19:32N 43°53' E 029°38'  
Track history (hours):
 
Tides and Currents Weather Stations Pressure Air Temp Water Temp Dewpoint Dewpoint Depression Visibility Wind Speed Wind Dir Waves Ship Positions

Mustafa Sofuoglu

Last reported at 2016-Jan-18 09:33 UTC. Time now 2016-Feb-09 05:40 UTC.
Position N 42°11' E 038°58'.
Warning: this ship's position is 21 days out of date.

Length 106 m; draft 5.4 m.

Type: Cargo ship. MMSI: 271000831.

Date/timePositionNaut miles runAvg speedWind from/ knotsBaromVisibWave heightAir tempDewpointWater temp
2016-Jan-18 09:33N 42°11' E 038°58'1411.8
2016-Jan-18 08:24N 42°11' E 038°40'1111.9
2016-Jan-18 07:27N 42°10' E 038°25'1111.9
2016-Jan-18 06:31N 42°10' E 038°10'1212.0
2016-Jan-18 05:33N 42°10' E 037°54'1212.0
2016-Jan-18 04:33N 42°10' E 037°38'39712.4
2016-Jan-16 20:31N 40°58' E 028°57'5 2.3
2016-Jan-16 18:31N 40°54' E 029°00'1212.3
2016-Jan-16 17:33N 40°47' E 029°13'1211.4
2016-Jan-16 16:29N 40°45' E 029°29'2 0.1
2016-Jan-15 12:33N 40°46' E 029°26'0 0.0
2016-Jan-15 11:19N 40°46' E 029°26'0 0.0
2016-Jan-15 10:07N 40°46' E 029°26'0 0.1
2016-Jan-15 09:31N 40°46' E 029°26'6 1.2
2016-Jan-15 04:33N 40°45' E 029°18'1212.1
2016-Jan-15 03:33N 40°49' E 029°03'1110.4
2016-Jan-15 02:32N 40°59' E 028°57'177 5.7
2016-Jan-13 19:32N 43°53' E 029°38'  

Dump ship's entire track history